KHBG/HBG METAR and TAF weather

Enter ICAO airport designator
Station Type Date Time Source
KHBG METAR 2020/09/30 15:53 UTC NOAA

KHBG 301553Z AUTO 00000KT 10SM CLR 23/08 A3015 RMK AO2 SLP207 T02280083


Station Type Date Time Source
KHBG Decoded METAR 2020/09/30 15:53 UTC NOAA

HATTIESBURG CHAIN MUNICIPAL, MS, United States (KHBG) 31-16N 89-15W 44M
Sep 30, 2020 - 11:53 AM EDT / 2020.09.30 1553 UTC
Wind: Calm:0
Visibility: 10 mile(s):0
Sky conditions: clear
Temperature: 73.0 F (22.8 C)
Dew Point: 46.9 F (8.3 C)
Relative Humidity: 39%
Pressure (altimeter): 30.15 in. Hg (1020 hPa)
ob: KHBG 301553Z AUTO 00000KT 10SM CLR 23/08 A3015 RMK AO2 SLP207 T02280083
cycle: 16

Station Type Date Time Source
KHBG TAF 2020/09/30 12:22 UTC NOAA

TAF KHBG 301120Z 3012/0112 VRB03KT P6SM SKC
FM301600 27006KT P6SM SKC

Example: see airport list